sensor_id;sensor_type;location;lat;lon;timestamp;P1;durP1;ratioP1;P2;durP2;ratioP2
54539;SDS011;40438;52.992;18.604;2022-09-12T00:01:54;4.30;;;2.35;;
54539;SDS011;40438;52.992;18.604;2022-09-12T00:04:19;3.83;;;3.03;;
54539;SDS011;40438;52.992;18.604;2022-09-12T00:06:45;4.20;;;2.70;;
54539;SDS011;40438;52.992;18.604;2022-09-12T00:09:12;6.57;;;2.90;;
54539;SDS011;40438;52.992;18.604;2022-09-12T00:11:38;4.20;;;2.85;;
54539;SDS011;40438;52.992;18.604;2022-09-12T00:14:06;4.53;;;2.50;;
54539;SDS011;40438;52.992;18.604;2022-09-12T00:16:34;5.72;;;2.85;;
54539;SDS011;40438;52.992;18.604;2022-09-12T00:19:02;4.35;;;2.58;;
54539;SDS011;40438;52.992;18.604;2022-09-12T00:21:29;4.82;;;2.28;;
54539;SDS011;40438;52.992;18.604;2022-09-12T00:23:57;5.75;;;2.70;;
54539;SDS011;40438;52.992;18.604;2022-09-12T00:26:23;11.80;;;3.05;;
54539;SDS011;40438;52.992;18.604;2022-09-12T00:28:49;4.82;;;2.10;;
54539;SDS011;40438;52.992;18.604;2022-09-12T00:31:16;7.30;;;2.67;;
54539;SDS011;40438;52.992;18.604;2022-09-12T00:33:43;6.10;;;2.65;;
54539;SDS011;40438;52.992;18.604;2022-09-12T00:36:13;4.00;;;2.65;;
54539;SDS011;40438;52.992;18.604;2022-09-12T00:38:40;5.97;;;2.40;;
54539;SDS011;40438;52.992;18.604;2022-09-12T00:41:08;6.95;;;2.95;;
54539;SDS011;40438;52.992;18.604;2022-09-12T00:43:39;4.90;;;2.70;;
54539;SDS011;40438;52.992;18.604;2022-09-12T00:46:11;3.03;;;2.25;;
54539;SDS011;40438;52.992;18.604;2022-09-12T00:48:43;7.60;;;2.50;;
54539;SDS011;40438;52.992;18.604;2022-09-12T00:51:14;9.27;;;2.42;;
54539;SDS011;40438;52.992;18.604;2022-09-12T00:53:41;4.20;;;2.42;;
54539;SDS011;40438;52.992;18.604;2022-09-12T00:56:10;5.40;;;2.33;;
54539;SDS011;40438;52.992;18.604;2022-09-12T00:58:41;4.60;;;2.70;;
54539;SDS011;40438;52.992;18.604;2022-09-12T01:01:12;7.60;;;2.80;;
54539;SDS011;40438;52.992;18.604;2022-09-12T01:03:37;5.65;;;2.88;;
54539;SDS011;40438;52.992;18.604;2022-09-12T01:06:06;6.40;;;2.63;;
54539;SDS011;40438;52.992;18.604;2022-09-12T01:08:38;5.15;;;2.78;;
54539;SDS011;40438;52.992;18.604;2022-09-12T01:11:07;5.20;;;2.92;;
54539;SDS011;40438;52.992;18.604;2022-09-12T01:13:35;4.75;;;2.80;;
54539;SDS011;40438;52.992;18.604;2022-09-12T01:16:01;5.80;;;2.80;;
54539;SDS011;40438;52.992;18.604;2022-09-12T01:18:29;5.28;;;2.30;;
54539;SDS011;40438;52.992;18.604;2022-09-12T01:21:05;6.40;;;2.42;;
54539;SDS011;40438;52.992;18.604;2022-09-12T01:23:59;4.57;;;2.67;;
54539;SDS011;40438;52.992;18.604;2022-09-12T01:32:53;4.78;;;2.80;;
54539;SDS011;40438;52.992;18.604;2022-09-12T01:35:31;3.83;;;2.70;;
54539;SDS011;40438;52.992;18.604;2022-09-12T01:38:06;7.47;;;3.15;;
54539;SDS011;40438;52.992;18.604;2022-09-12T01:40:38;3.88;;;2.45;;
54539;SDS011;40438;52.992;18.604;2022-09-12T01:43:10;5.13;;;2.95;;
54539;SDS011;40438;52.992;18.604;2022-09-12T01:45:48;5.35;;;2.78;;
54539;SDS011;40438;52.992;18.604;2022-09-12T01:48:21;4.35;;;2.58;;
54539;SDS011;40438;52.992;18.604;2022-09-12T01:50:51;8.07;;;2.63;;
54539;SDS011;40438;52.992;18.604;2022-09-12T01:53:22;6.47;;;2.95;;
54539;SDS011;40438;52.992;18.604;2022-09-12T01:55:53;4.45;;;2.92;;
54539;SDS011;40438;52.992;18.604;2022-09-12T01:58:23;6.75;;;2.55;;
54539;SDS011;40438;52.992;18.604;2022-09-12T02:00:57;4.03;;;2.60;;
54539;SDS011;40438;52.992;18.604;2022-09-12T02:03:28;4.72;;;2.78;;
54539;SDS011;40438;52.992;18.604;2022-09-12T02:05:59;3.50;;;2.50;;
54539;SDS011;40438;52.992;18.604;2022-09-12T02:08:28;4.55;;;2.97;;
54539;SDS011;40438;52.992;18.604;2022-09-12T02:10:58;5.00;;;2.70;;
54539;SDS011;40438;52.992;18.604;2022-09-12T02:13:28;5.53;;;2.92;;
54539;SDS011;40438;52.992;18.604;2022-09-12T02:16:02;4.93;;;2.65;;
54539;SDS011;40438;52.992;18.604;2022-09-12T02:18:32;5.78;;;2.90;;
54539;SDS011;40438;52.992;18.604;2022-09-12T02:21:01;4.20;;;2.42;;
54539;SDS011;40438;52.992;18.604;2022-09-12T02:23:31;5.90;;;2.97;;
54539;SDS011;40438;52.992;18.604;2022-09-12T02:25:59;4.82;;;2.53;;
54539;SDS011;40438;52.992;18.604;2022-09-12T02:28:30;7.60;;;2.85;;
54539;SDS011;40438;52.992;18.604;2022-09-12T02:31:03;4.03;;;2.80;;
54539;SDS011;40438;52.992;18.604;2022-09-12T02:33:36;5.38;;;2.85;;
54539;SDS011;40438;52.992;18.604;2022-09-12T02:36:09;8.35;;;2.83;;
54539;SDS011;40438;52.992;18.604;2022-09-12T02:38:41;5.40;;;2.70;;
54539;SDS011;40438;52.992;18.604;2022-09-12T02:41:09;7.05;;;2.97;;
54539;SDS011;40438;52.992;18.604;2022-09-12T02:43:35;4.32;;;2.70;;
54539;SDS011;40438;52.992;18.604;2022-09-12T02:46:03;6.65;;;3.33;;
54539;SDS011;40438;52.992;18.604;2022-09-12T02:48:33;7.40;;;3.00;;
54539;SDS011;40438;52.992;18.604;2022-09-12T02:51:03;7.32;;;3.22;;
54539;SDS011;40438;52.992;18.604;2022-09-12T02:53:29;5.18;;;2.80;;
54539;SDS011;40438;52.992;18.604;2022-09-12T02:55:55;5.90;;;3.00;;
54539;SDS011;40438;52.992;18.604;2022-09-12T02:58:21;4.20;;;2.67;;
54539;SDS011;40438;52.992;18.604;2022-09-12T03:00:53;7.93;;;3.30;;
54539;SDS011;40438;52.992;18.604;2022-09-12T03:03:30;9.88;;;3.10;;
54539;SDS011;40438;52.992;18.604;2022-09-12T03:06:07;5.53;;;2.50;;
54539;SDS011;40438;52.992;18.604;2022-09-12T03:08:44;7.97;;;2.90;;
54539;SDS011;40438;52.992;18.604;2022-09-12T03:14:25;6.30;;;2.58;;
54539;SDS011;40438;52.992;18.604;2022-09-12T03:19:34;4.70;;;2.55;;
54539;SDS011;40438;52.992;18.604;2022-09-12T03:22:12;5.50;;;3.95;;
54539;SDS011;40438;52.992;18.604;2022-09-12T03:24:45;6.05;;;3.00;;
54539;SDS011;40438;52.992;18.604;2022-09-12T03:27:19;5.18;;;2.65;;
54539;SDS011;40438;52.992;18.604;2022-09-12T03:29:50;7.60;;;3.00;;
54539;SDS011;40438;52.992;18.604;2022-09-12T03:32:17;5.30;;;2.85;;
54539;SDS011;40438;52.992;18.604;2022-09-12T03:34:44;5.25;;;2.72;;
54539;SDS011;40438;52.992;18.604;2022-09-12T03:37:10;3.55;;;2.95;;
54539;SDS011;40438;52.992;18.604;2022-09-12T03:39:35;6.63;;;3.05;;
54539;SDS011;40438;52.992;18.604;2022-09-12T03:42:01;5.88;;;3.00;;
54539;SDS011;40438;52.992;18.604;2022-09-12T03:44:27;6.63;;;2.83;;
54539;SDS011;40438;52.992;18.604;2022-09-12T03:46:53;4.68;;;2.72;;
54539;SDS011;40438;52.992;18.604;2022-09-12T03:49:19;5.20;;;2.90;;
54539;SDS011;40438;52.992;18.604;2022-09-12T03:51:46;5.32;;;3.15;;
54539;SDS011;40438;52.992;18.604;2022-09-12T03:54:11;7.15;;;3.08;;
54539;SDS011;40438;52.992;18.604;2022-09-12T03:56:37;4.10;;;2.90;;
54539;SDS011;40438;52.992;18.604;2022-09-12T03:59:03;11.00;;;3.13;;
54539;SDS011;40438;52.992;18.604;2022-09-12T04:01:29;11.90;;;3.10;;
54539;SDS011;40438;52.992;18.604;2022-09-12T04:03:55;8.98;;;3.40;;
54539;SDS011;40438;52.992;18.604;2022-09-12T04:06:21;6.15;;;3.17;;
54539;SDS011;40438;52.992;18.604;2022-09-12T04:08:48;5.43;;;3.40;;
54539;SDS011;40438;52.992;18.604;2022-09-12T04:11:15;6.00;;;3.05;;
54539;SDS011;40438;52.992;18.604;2022-09-12T04:13:42;5.20;;;3.00;;
54539;SDS011;40438;52.992;18.604;2022-09-12T04:16:09;9.15;;;3.25;;
54539;SDS011;40438;52.992;18.604;2022-09-12T04:18:36;8.30;;;2.83;;
54539;SDS011;40438;52.992;18.604;2022-09-12T04:21:02;7.88;;;3.67;;
54539;SDS011;40438;52.992;18.604;2022-09-12T04:23:29;5.68;;;3.28;;
54539;SDS011;40438;52.992;18.604;2022-09-12T04:25:56;13.48;;;4.13;;
54539;SDS011;40438;52.992;18.604;2022-09-12T04:28:23;9.38;;;3.95;;
54539;SDS011;40438;52.992;18.604;2022-09-12T04:30:50;6.10;;;3.17;;
54539;SDS011;40438;52.992;18.604;2022-09-12T04:33:16;5.57;;;3.33;;
54539;SDS011;40438;52.992;18.604;2022-09-12T04:35:42;4.68;;;3.15;;
54539;SDS011;40438;52.992;18.604;2022-09-12T04:38:08;7.72;;;2.97;;
54539;SDS011;40438;52.992;18.604;2022-09-12T04:40:34;6.82;;;3.38;;
54539;SDS011;40438;52.992;18.604;2022-09-12T04:43:01;8.52;;;3.60;;
54539;SDS011;40438;52.992;18.604;2022-09-12T04:45:27;11.27;;;3.92;;
54539;SDS011;40438;52.992;18.604;2022-09-12T04:47:53;6.38;;;3.08;;
54539;SDS011;40438;52.992;18.604;2022-09-12T04:50:18;5.38;;;3.40;;
54539;SDS011;40438;52.992;18.604;2022-09-12T04:52:47;6.35;;;3.47;;
54539;SDS011;40438;52.992;18.604;2022-09-12T04:55:14;7.72;;;3.53;;
54539;SDS011;40438;52.992;18.604;2022-09-12T04:57:39;6.68;;;3.42;;
54539;SDS011;40438;52.992;18.604;2022-09-12T05:00:08;5.50;;;3.47;;
54539;SDS011;40438;52.992;18.604;2022-09-12T05:02:34;4.80;;;3.13;;
54539;SDS011;40438;52.992;18.604;2022-09-12T05:05:00;5.00;;;3.63;;
54539;SDS011;40438;52.992;18.604;2022-09-12T05:07:26;9.75;;;3.53;;
54539;SDS011;40438;52.992;18.604;2022-09-12T05:09:51;6.65;;;3.22;;
54539;SDS011;40438;52.992;18.604;2022-09-12T05:12:17;4.60;;;3.15;;
54539;SDS011;40438;52.992;18.604;2022-09-12T05:14:43;4.85;;;3.28;;
54539;SDS011;40438;52.992;18.604;2022-09-12T05:17:10;5.30;;;3.22;;
54539;SDS011;40438;52.992;18.604;2022-09-12T05:19:35;6.43;;;3.50;;
54539;SDS011;40438;52.992;18.604;2022-09-12T05:22:01;5.82;;;3.08;;
54539;SDS011;40438;52.992;18.604;2022-09-12T05:24:27;4.90;;;2.85;;
54539;SDS011;40438;52.992;18.604;2022-09-12T05:26:53;6.60;;;3.17;;
54539;SDS011;40438;52.992;18.604;2022-09-12T05:29:18;5.47;;;3.28;;
54539;SDS011;40438;52.992;18.604;2022-09-12T05:31:44;8.63;;;3.42;;
54539;SDS011;40438;52.992;18.604;2022-09-12T05:34:11;5.88;;;3.70;;
54539;SDS011;40438;52.992;18.604;2022-09-12T05:36:37;6.22;;;3.85;;
54539;SDS011;40438;52.992;18.604;2022-09-12T05:39:02;7.88;;;3.22;;
54539;SDS011;40438;52.992;18.604;2022-09-12T05:41:29;4.90;;;3.10;;
54539;SDS011;40438;52.992;18.604;2022-09-12T05:43:57;7.63;;;3.60;;
54539;SDS011;40438;52.992;18.604;2022-09-12T05:46:24;7.25;;;3.40;;
54539;SDS011;40438;52.992;18.604;2022-09-12T05:48:51;3.95;;;2.78;;
54539;SDS011;40438;52.992;18.604;2022-09-12T05:51:20;7.68;;;2.88;;
54539;SDS011;40438;52.992;18.604;2022-09-12T05:53:48;9.02;;;3.58;;
54539;SDS011;40438;52.992;18.604;2022-09-12T05:56:15;4.43;;;3.28;;
54539;SDS011;40438;52.992;18.604;2022-09-12T05:58:43;7.47;;;3.53;;
54539;SDS011;40438;52.992;18.604;2022-09-12T06:01:10;9.32;;;3.72;;
54539;SDS011;40438;52.992;18.604;2022-09-12T06:03:39;8.23;;;3.80;;
54539;SDS011;40438;52.992;18.604;2022-09-12T06:06:06;7.85;;;3.42;;
54539;SDS011;40438;52.992;18.604;2022-09-12T06:08:34;6.18;;;3.38;;
54539;SDS011;40438;52.992;18.604;2022-09-12T06:11:00;6.00;;;3.53;;
54539;SDS011;40438;52.992;18.604;2022-09-12T06:13:26;5.78;;;3.28;;
54539;SDS011;40438;52.992;18.604;2022-09-12T06:15:52;6.72;;;3.55;;
54539;SDS011;40438;52.992;18.604;2022-09-12T06:18:18;10.75;;;3.58;;
54539;SDS011;40438;52.992;18.604;2022-09-12T06:20:44;4.90;;;2.97;;
54539;SDS011;40438;52.992;18.604;2022-09-12T06:23:10;8.25;;;3.90;;
54539;SDS011;40438;52.992;18.604;2022-09-12T06:25:37;7.55;;;3.33;;
54539;SDS011;40438;52.992;18.604;2022-09-12T06:28:09;9.15;;;3.78;;
54539;SDS011;40438;52.992;18.604;2022-09-12T06:30:35;8.98;;;4.18;;
54539;SDS011;40438;52.992;18.604;2022-09-12T06:33:01;7.28;;;3.50;;
54539;SDS011;40438;52.992;18.604;2022-09-12T06:35:27;5.10;;;3.20;;
54539;SDS011;40438;52.992;18.604;2022-09-12T06:37:52;8.23;;;3.40;;
54539;SDS011;40438;52.992;18.604;2022-09-12T06:40:18;5.63;;;3.45;;
54539;SDS011;40438;52.992;18.604;2022-09-12T06:42:45;7.55;;;3.25;;
54539;SDS011;40438;52.992;18.604;2022-09-12T06:45:19;5.55;;;3.08;;
54539;SDS011;40438;52.992;18.604;2022-09-12T06:47:44;5.30;;;3.17;;
54539;SDS011;40438;52.992;18.604;2022-09-12T06:50:10;8.32;;;3.10;;
54539;SDS011;40438;52.992;18.604;2022-09-12T06:52:36;4.25;;;2.70;;
54539;SDS011;40438;52.992;18.604;2022-09-12T06:55:02;6.13;;;2.42;;
54539;SDS011;40438;52.992;18.604;2022-09-12T06:57:28;4.65;;;2.50;;
54539;SDS011;40438;52.992;18.604;2022-09-12T06:59:55;3.88;;;2.55;;
54539;SDS011;40438;52.992;18.604;2022-09-12T07:02:20;6.22;;;2.53;;
54539;SDS011;40438;52.992;18.604;2022-09-12T07:04:46;4.70;;;2.58;;
54539;SDS011;40438;52.992;18.604;2022-09-12T07:07:12;6.28;;;2.50;;
54539;SDS011;40438;52.992;18.604;2022-09-12T07:09:38;3.83;;;2.30;;
54539;SDS011;40438;52.992;18.604;2022-09-12T07:12:03;4.70;;;1.98;;
54539;SDS011;40438;52.992;18.604;2022-09-12T07:14:31;4.72;;;2.30;;
54539;SDS011;40438;52.992;18.604;2022-09-12T07:16:59;2.83;;;2.00;;
54539;SDS011;40438;52.992;18.604;2022-09-12T07:19:24;2.83;;;1.80;;
54539;SDS011;40438;52.992;18.604;2022-09-12T07:21:50;3.47;;;1.58;;
54539;SDS011;40438;52.992;18.604;2022-09-12T07:24:16;4.25;;;1.83;;
54539;SDS011;40438;52.992;18.604;2022-09-12T07:26:41;6.63;;;1.70;;
54539;SDS011;40438;52.992;18.604;2022-09-12T07:29:08;5.18;;;2.60;;
54539;SDS011;40438;52.992;18.604;2022-09-12T07:31:38;1.90;;;1.13;;
54539;SDS011;40438;52.992;18.604;2022-09-12T07:34:05;1.92;;;1.50;;
54539;SDS011;40438;52.992;18.604;2022-09-12T07:36:31;2.78;;;1.65;;
54539;SDS011;40438;52.992;18.604;2022-09-12T07:38:57;4.05;;;1.42;;
54539;SDS011;40438;52.992;18.604;2022-09-12T07:41:24;6.60;;;1.92;;
54539;SDS011;40438;52.992;18.604;2022-09-12T07:43:51;1.80;;;1.30;;
54539;SDS011;40438;52.992;18.604;2022-09-12T07:46:18;1.70;;;1.35;;
54539;SDS011;40438;52.992;18.604;2022-09-12T07:48:47;4.53;;;1.50;;
54539;SDS011;40438;52.992;18.604;2022-09-12T07:51:15;2.72;;;1.08;;
54539;SDS011;40438;52.992;18.604;2022-09-12T07:53:42;2.75;;;1.50;;
54539;SDS011;40438;52.992;18.604;2022-09-12T07:56:08;4.65;;;1.48;;
54539;SDS011;40438;52.992;18.604;2022-09-12T07:58:35;2.33;;;1.50;;
54539;SDS011;40438;52.992;18.604;2022-09-12T08:01:02;3.63;;;1.42;;
54539;SDS011;40438;52.992;18.604;2022-09-12T08:03:28;2.63;;;1.50;;
54539;SDS011;40438;52.992;18.604;2022-09-12T08:05:54;6.47;;;1.35;;
54539;SDS011;40438;52.992;18.604;2022-09-12T08:08:21;1.90;;;1.20;;
54539;SDS011;40438;52.992;18.604;2022-09-12T08:10:46;4.30;;;1.33;;
54539;SDS011;40438;52.992;18.604;2022-09-12T08:13:12;1.48;;;1.15;;
54539;SDS011;40438;52.992;18.604;2022-09-12T08:15:38;2.35;;;1.45;;
54539;SDS011;40438;52.992;18.604;2022-09-12T08:18:03;4.22;;;1.65;;
54539;SDS011;40438;52.992;18.604;2022-09-12T08:20:29;2.20;;;1.48;;
54539;SDS011;40438;52.992;18.604;2022-09-12T08:22:55;3.22;;;1.42;;
54539;SDS011;40438;52.992;18.604;2022-09-12T08:25:22;3.15;;;1.30;;
54539;SDS011;40438;52.992;18.604;2022-09-12T08:27:48;2.10;;;1.30;;
54539;SDS011;40438;52.992;18.604;2022-09-12T08:30:13;2.67;;;1.85;;
54539;SDS011;40438;52.992;18.604;2022-09-12T08:32:39;2.47;;;1.30;;
54539;SDS011;40438;52.992;18.604;2022-09-12T08:35:05;3.75;;;1.42;;
54539;SDS011;40438;52.992;18.604;2022-09-12T08:37:31;10.15;;;2.17;;
54539;SDS011;40438;52.992;18.604;2022-09-12T08:39:57;1.77;;;1.30;;
54539;SDS011;40438;52.992;18.604;2022-09-12T08:42:25;2.90;;;1.50;;
54539;SDS011;40438;52.992;18.604;2022-09-12T08:45:16;1.40;;;1.10;;
54539;SDS011;40438;52.992;18.604;2022-09-12T08:47:44;1.55;;;1.13;;
54539;SDS011;40438;52.992;18.604;2022-09-12T08:50:15;2.97;;;1.85;;
54539;SDS011;40438;52.992;18.604;2022-09-12T08:52:47;1.48;;;1.38;;
54539;SDS011;40438;52.992;18.604;2022-09-12T08:55:22;1.17;;;1.08;;
54539;SDS011;40438;52.992;18.604;2022-09-12T08:57:56;2.85;;;1.48;;
54539;SDS011;40438;52.992;18.604;2022-09-12T09:00:21;1.58;;;1.13;;
54539;SDS011;40438;52.992;18.604;2022-09-12T09:02:57;3.70;;;1.10;;
54539;SDS011;40438;52.992;18.604;2022-09-12T09:05:41;5.47;;;1.65;;
54539;SDS011;40438;52.992;18.604;2022-09-12T09:08:15;2.72;;;1.05;;
54539;SDS011;40438;52.992;18.604;2022-09-12T09:10:48;1.80;;;1.27;;
54539;SDS011;40438;52.992;18.604;2022-09-12T09:13:26;1.70;;;1.02;;
54539;SDS011;40438;52.992;18.604;2022-09-12T09:16:04;1.60;;;1.50;;
54539;SDS011;40438;52.992;18.604;2022-09-12T09:18:36;2.78;;;1.15;;
54539;SDS011;40438;52.992;18.604;2022-09-12T09:21:04;4.28;;;1.05;;
54539;SDS011;40438;52.992;18.604;2022-09-12T09:23:39;2.92;;;1.33;;
54539;SDS011;40438;52.992;18.604;2022-09-12T09:26:10;3.10;;;1.10;;
54539;SDS011;40438;52.992;18.604;2022-09-12T09:28:42;6.55;;;1.38;;
54539;SDS011;40438;52.992;18.604;2022-09-12T09:31:11;1.52;;;1.15;;
54539;SDS011;40438;52.992;18.604;2022-09-12T09:33:39;1.63;;;1.20;;
54539;SDS011;40438;52.992;18.604;2022-09-12T09:36:09;1.75;;;1.20;;
54539;SDS011;40438;52.992;18.604;2022-09-12T09:38:46;1.08;;;0.98;;
54539;SDS011;40438;52.992;18.604;2022-09-12T09:41:26;1.15;;;0.82;;
54539;SDS011;40438;52.992;18.604;2022-09-12T09:44:00;3.20;;;0.98;;
54539;SDS011;40438;52.992;18.604;2022-09-12T09:46:26;2.20;;;0.98;;
54539;SDS011;40438;52.992;18.604;2022-09-12T09:48:53;2.75;;;1.10;;
54539;SDS011;40438;52.992;18.604;2022-09-12T09:51:23;2.25;;;0.90;;
54539;SDS011;40438;52.992;18.604;2022-09-12T09:53:53;6.35;;;1.00;;
54539;SDS011;40438;52.992;18.604;2022-09-12T09:56:25;3.85;;;1.30;;
54539;SDS011;40438;52.992;18.604;2022-09-12T09:58:53;2.38;;;0.90;;
54539;SDS011;40438;52.992;18.604;2022-09-12T10:01:20;3.42;;;1.10;;
54539;SDS011;40438;52.992;18.604;2022-09-12T10:03:47;1.25;;;1.00;;
54539;SDS011;40438;52.992;18.604;2022-09-12T10:06:21;1.00;;;0.90;;
54539;SDS011;40438;52.992;18.604;2022-09-12T10:08:50;1.95;;;1.10;;
54539;SDS011;40438;52.992;18.604;2022-09-12T10:11:17;4.20;;;1.10;;
54539;SDS011;40438;52.992;18.604;2022-09-12T10:13:51;1.90;;;1.05;;
54539;SDS011;40438;52.992;18.604;2022-09-12T10:16:20;1.42;;;0.93;;
54539;SDS011;40438;52.992;18.604;2022-09-12T10:18:48;2.25;;;0.88;;
54539;SDS011;40438;52.992;18.604;2022-09-12T10:21:24;1.67;;;1.05;;
54539;SDS011;40438;52.992;18.604;2022-09-12T10:23:58;1.00;;;0.60;;
54539;SDS011;40438;52.992;18.604;2022-09-12T10:26:27;1.77;;;1.00;;
54539;SDS011;40438;52.992;18.604;2022-09-12T10:28:57;3.20;;;1.15;;
54539;SDS011;40438;52.992;18.604;2022-09-12T10:31:34;1.77;;;1.00;;
54539;SDS011;40438;52.992;18.604;2022-09-12T10:34:09;1.55;;;1.05;;
54539;SDS011;40438;52.992;18.604;2022-09-12T10:36:45;3.10;;;1.08;;
54539;SDS011;40438;52.992;18.604;2022-09-12T10:39:14;1.33;;;1.00;;
54539;SDS011;40438;52.992;18.604;2022-09-12T10:41:43;2.85;;;1.10;;
54539;SDS011;40438;52.992;18.604;2022-09-12T10:44:13;2.63;;;1.27;;
54539;SDS011;40438;52.992;18.604;2022-09-12T10:46:41;1.83;;;0.90;;
54539;SDS011;40438;52.992;18.604;2022-09-12T10:49:19;1.52;;;1.17;;
54539;SDS011;40438;52.992;18.604;2022-09-12T10:51:47;1.80;;;1.02;;
54539;SDS011;40438;52.992;18.604;2022-09-12T10:54:14;0.95;;;0.90;;
54539;SDS011;40438;52.992;18.604;2022-09-12T10:56:44;1.55;;;0.90;;
54539;SDS011;40438;52.992;18.604;2022-09-12T10:59:19;5.15;;;0.80;;
54539;SDS011;40438;52.992;18.604;2022-09-12T11:01:54;0.77;;;0.77;;
54539;SDS011;40438;52.992;18.604;2022-09-12T11:04:38;2.53;;;1.40;;
54539;SDS011;40438;52.992;18.604;2022-09-12T11:07:16;4.28;;;1.08;;
54539;SDS011;40438;52.992;18.604;2022-09-12T11:09:55;3.55;;;2.00;;
54539;SDS011;40438;52.992;18.604;2022-09-12T11:12:28;0.95;;;0.85;;
54539;SDS011;40438;52.992;18.604;2022-09-12T11:15:07;1.20;;;0.82;;
54539;SDS011;40438;52.992;18.604;2022-09-12T11:20:22;2.90;;;1.30;;
54539;SDS011;40438;52.992;18.604;2022-09-12T11:23:04;6.85;;;1.15;;
54539;SDS011;40438;52.992;18.604;2022-09-12T11:25:57;1.23;;;0.90;;
54539;SDS011;40438;52.992;18.604;2022-09-12T11:28:29;2.17;;;1.00;;
54539;SDS011;40438;52.992;18.604;2022-09-12T11:31:10;1.77;;;0.95;;
54539;SDS011;40438;52.992;18.604;2022-09-12T11:34:00;1.98;;;0.93;;
54539;SDS011;40438;52.992;18.604;2022-09-12T11:36:33;1.83;;;1.10;;
54539;SDS011;40438;52.992;18.604;2022-09-12T11:39:09;1.90;;;1.10;;
54539;SDS011;40438;52.992;18.604;2022-09-12T11:41:38;2.17;;;0.90;;
54539;SDS011;40438;52.992;18.604;2022-09-12T11:44:09;1.67;;;0.80;;
54539;SDS011;40438;52.992;18.604;2022-09-12T11:46:40;1.25;;;1.10;;
54539;SDS011;40438;52.992;18.604;2022-09-12T11:49:15;0.98;;;0.90;;
54539;SDS011;40438;52.992;18.604;2022-09-12T11:51:56;1.85;;;0.80;;
54539;SDS011;40438;52.992;18.604;2022-09-12T11:54:29;1.58;;;1.00;;
54539;SDS011;40438;52.992;18.604;2022-09-12T11:57:03;1.23;;;1.00;;
54539;SDS011;40438;52.992;18.604;2022-09-12T11:59:40;1.60;;;0.90;;
54539;SDS011;40438;52.992;18.604;2022-09-12T12:02:10;1.90;;;1.00;;
54539;SDS011;40438;52.992;18.604;2022-09-12T12:04:39;1.70;;;1.08;;
54539;SDS011;40438;52.992;18.604;2022-09-12T12:07:09;1.60;;;0.95;;
54539;SDS011;40438;52.992;18.604;2022-09-12T12:09:36;1.30;;;1.00;;
54539;SDS011;40438;52.992;18.604;2022-09-12T12:12:10;1.65;;;1.20;;
54539;SDS011;40438;52.992;18.604;2022-09-12T12:14:42;1.60;;;1.05;;
54539;SDS011;40438;52.992;18.604;2022-09-12T12:17:13;2.45;;;1.20;;
54539;SDS011;40438;52.992;18.604;2022-09-12T12:19:41;5.13;;;1.20;;
54539;SDS011;40438;52.992;18.604;2022-09-12T12:22:11;1.40;;;0.82;;
54539;SDS011;40438;52.992;18.604;2022-09-12T12:24:58;2.08;;;1.33;;
54539;SDS011;40438;52.992;18.604;2022-09-12T12:36:30;0.85;;;0.70;;
54539;SDS011;40438;52.992;18.604;2022-09-12T12:38:59;2.38;;;1.10;;
54539;SDS011;40438;52.992;18.604;2022-09-12T12:42:08;2.00;;;1.00;;
54539;SDS011;40438;52.992;18.604;2022-09-12T12:44:46;2.63;;;0.80;;
54539;SDS011;40438;52.992;18.604;2022-09-12T12:47:14;1.77;;;0.85;;
54539;SDS011;40438;52.992;18.604;2022-09-12T12:49:48;1.45;;;0.90;;
54539;SDS011;40438;52.992;18.604;2022-09-12T12:54:48;1.00;;;0.90;;
54539;SDS011;40438;52.992;18.604;2022-09-12T13:00:05;1.45;;;0.90;;
54539;SDS011;40438;52.992;18.604;2022-09-12T13:02:32;2.10;;;1.00;;
54539;SDS011;40438;52.992;18.604;2022-09-12T13:05:02;1.02;;;0.85;;
54539;SDS011;40438;52.992;18.604;2022-09-12T13:07:33;1.45;;;1.00;;
54539;SDS011;40438;52.992;18.604;2022-09-12T13:10:02;1.15;;;0.65;;
54539;SDS011;40438;52.992;18.604;2022-09-12T13:12:30;1.02;;;0.93;;
54539;SDS011;40438;52.992;18.604;2022-09-12T13:14:59;1.20;;;0.90;;
54539;SDS011;40438;52.992;18.604;2022-09-12T13:17:30;1.27;;;0.80;;
54539;SDS011;40438;52.992;18.604;2022-09-12T13:22:38;1.00;;;0.80;;
54539;SDS011;40438;52.992;18.604;2022-09-12T13:25:16;0.98;;;0.80;;
54539;SDS011;40438;52.992;18.604;2022-09-12T13:27:54;2.28;;;0.80;;
54539;SDS011;40438;52.992;18.604;2022-09-12T13:30:24;0.95;;;0.70;;
54539;SDS011;40438;52.992;18.604;2022-09-12T13:32:51;4.80;;;1.30;;
54539;SDS011;40438;52.992;18.604;2022-09-12T13:35:19;1.30;;;0.90;;
54539;SDS011;40438;52.992;18.604;2022-09-12T13:37:53;1.27;;;0.80;;
54539;SDS011;40438;52.992;18.604;2022-09-12T13:40:29;2.05;;;0.90;;
54539;SDS011;40438;52.992;18.604;2022-09-12T13:43:06;1.98;;;0.90;;
54539;SDS011;40438;52.992;18.604;2022-09-12T13:45:37;2.05;;;1.00;;
54539;SDS011;40438;52.992;18.604;2022-09-12T13:48:03;4.90;;;1.08;;
54539;SDS011;40438;52.992;18.604;2022-09-12T13:50:31;7.18;;;1.38;;
54539;SDS011;40438;52.992;18.604;2022-09-12T13:53:04;1.45;;;1.15;;
54539;SDS011;40438;52.992;18.604;2022-09-12T13:55:34;3.15;;;0.80;;
54539;SDS011;40438;52.992;18.604;2022-09-12T13:58:03;2.85;;;0.88;;
54539;SDS011;40438;52.992;18.604;2022-09-12T14:00:30;0.70;;;0.70;;
54539;SDS011;40438;52.992;18.604;2022-09-12T14:02:57;0.95;;;0.80;;
54539;SDS011;40438;52.992;18.604;2022-09-12T14:05:25;1.90;;;1.00;;
54539;SDS011;40438;52.992;18.604;2022-09-12T14:07:52;3.00;;;0.90;;
54539;SDS011;40438;52.992;18.604;2022-09-12T14:10:22;1.20;;;0.82;;
54539;SDS011;40438;52.992;18.604;2022-09-12T14:12:53;0.93;;;0.70;;
54539;SDS011;40438;52.992;18.604;2022-09-12T14:15:20;0.85;;;0.73;;
54539;SDS011;40438;52.992;18.604;2022-09-12T14:17:49;1.50;;;0.80;;
54539;SDS011;40438;52.992;18.604;2022-09-12T14:20:16;0.88;;;0.80;;
54539;SDS011;40438;52.992;18.604;2022-09-12T14:22:42;0.93;;;0.77;;
54539;SDS011;40438;52.992;18.604;2022-09-12T14:25:09;2.28;;;1.17;;
54539;SDS011;40438;52.992;18.604;2022-09-12T14:27:42;1.45;;;1.00;;
54539;SDS011;40438;52.992;18.604;2022-09-12T14:30:18;1.20;;;0.80;;
54539;SDS011;40438;52.992;18.604;2022-09-12T14:33:00;1.83;;;1.10;;
54539;SDS011;40438;52.992;18.604;2022-09-12T14:35:28;4.32;;;1.10;;
54539;SDS011;40438;52.992;18.604;2022-09-12T14:37:54;2.80;;;0.90;;
54539;SDS011;40438;52.992;18.604;2022-09-12T14:40:20;1.50;;;1.20;;
54539;SDS011;40438;52.992;18.604;2022-09-12T14:42:50;1.85;;;0.90;;
54539;SDS011;40438;52.992;18.604;2022-09-12T14:45:20;2.80;;;1.20;;
54539;SDS011;40438;52.992;18.604;2022-09-12T14:50:15;2.90;;;1.10;;
54539;SDS011;40438;52.992;18.604;2022-09-12T14:52:42;2.88;;;1.10;;
54539;SDS011;40438;52.992;18.604;2022-09-12T14:55:19;1.48;;;0.93;;
54539;SDS011;40438;52.992;18.604;2022-09-12T14:57:54;1.23;;;1.02;;
54539;SDS011;40438;52.992;18.604;2022-09-12T15:00:35;0.90;;;0.80;;
54539;SDS011;40438;52.992;18.604;2022-09-12T15:03:16;2.08;;;1.23;;
54539;SDS011;40438;52.992;18.604;2022-09-12T15:05:48;1.27;;;1.00;;
54539;SDS011;40438;52.992;18.604;2022-09-12T15:08:14;1.83;;;0.77;;
54539;SDS011;40438;52.992;18.604;2022-09-12T15:10:40;1.08;;;0.77;;
54539;SDS011;40438;52.992;18.604;2022-09-12T15:13:15;1.52;;;1.00;;
54539;SDS011;40438;52.992;18.604;2022-09-12T15:15:43;7.70;;;1.45;;
54539;SDS011;40438;52.992;18.604;2022-09-12T15:18:11;1.63;;;1.10;;
54539;SDS011;40438;52.992;18.604;2022-09-12T15:20:37;1.40;;;1.10;;
54539;SDS011;40438;52.992;18.604;2022-09-12T15:23:05;2.03;;;1.25;;